sensor_id;sensor_type;location;lat;lon;timestamp;pressure;altitude;pressure_sealevel;temperature;humidity
55277;BME280;41136;51.478;-2.610;2024-02-23T00:00:07;97622.79;;;6.96;100.00
55277;BME280;41136;51.478;-2.610;2024-02-23T00:02:31;97620.27;;;6.90;100.00
55277;BME280;41136;51.478;-2.610;2024-02-23T00:04:57;97611.42;;;6.93;100.00
55277;BME280;41136;51.478;-2.610;2024-02-23T00:07:22;97604.75;;;6.44;100.00
55277;BME280;41136;51.478;-2.610;2024-02-23T00:09:48;97602.20;;;6.28;100.00
55277;BME280;41136;51.478;-2.610;2024-02-23T00:12:13;97594.29;;;6.97;100.00
55277;BME280;41136;51.478;-2.610;2024-02-23T00:14:38;97592.53;;;6.90;100.00
55277;BME280;41136;51.478;-2.610;2024-02-23T00:17:04;97588.25;;;6.68;100.00
55277;BME280;41136;51.478;-2.610;2024-02-23T00:19:30;97584.64;;;7.41;100.00
55277;BME280;41136;51.478;-2.610;2024-02-23T00:21:54;97587.17;;;7.47;100.00
55277;BME280;41136;51.478;-2.610;2024-02-23T00:24:20;97584.81;;;7.58;100.00
55277;BME280;41136;51.478;-2.610;2024-02-23T00:26:45;97582.01;;;7.79;100.00
55277;BME280;41136;51.478;-2.610;2024-02-23T00:29:11;97575.78;;;7.18;100.00
55277;BME280;41136;51.478;-2.610;2024-02-23T00:31:38;97575.47;;;7.74;100.00
55277;BME280;41136;51.478;-2.610;2024-02-23T00:34:01;97575.38;;;7.54;100.00
55277;BME280;41136;51.478;-2.610;2024-02-23T00:36:27;97569.06;;;7.44;100.00
55277;BME280;41136;51.478;-2.610;2024-02-23T00:38:52;97570.15;;;7.62;100.00
55277;BME280;41136;51.478;-2.610;2024-02-23T00:41:18;97565.47;;;7.86;100.00
55277;BME280;41136;51.478;-2.610;2024-02-23T00:43:43;97574.70;;;6.93;100.00
55277;BME280;41136;51.478;-2.610;2024-02-23T00:46:09;97570.37;;;6.98;100.00
55277;BME280;41136;51.478;-2.610;2024-02-23T00:48:34;97571.26;;;7.19;100.00
55277;BME280;41136;51.478;-2.610;2024-02-23T00:51:00;97568.09;;;7.07;100.00
55277;BME280;41136;51.478;-2.610;2024-02-23T00:53:25;97580.83;;;6.61;100.00
55277;BME280;41136;51.478;-2.610;2024-02-23T00:55:50;97575.50;;;6.20;100.00
55277;BME280;41136;51.478;-2.610;2024-02-23T00:58:15;97581.27;;;6.78;100.00
55277;BME280;41136;51.478;-2.610;2024-02-23T01:00:41;97579.15;;;5.99;100.00
55277;BME280;41136;51.478;-2.610;2024-02-23T01:03:06;97597.09;;;5.15;100.00
55277;BME280;41136;51.478;-2.610;2024-02-23T01:05:32;97586.22;;;5.40;100.00
55277;BME280;41136;51.478;-2.610;2024-02-23T01:07:57;97585.09;;;5.70;100.00
55277;BME280;41136;51.478;-2.610;2024-02-23T01:10:22;97574.42;;;5.59;100.00
55277;BME280;41136;51.478;-2.610;2024-02-23T01:12:48;97578.70;;;5.52;100.00
55277;BME280;41136;51.478;-2.610;2024-02-23T01:15:13;97579.69;;;5.69;100.00
55277;BME280;41136;51.478;-2.610;2024-02-23T01:17:39;97575.95;;;4.37;100.00
55277;BME280;41136;51.478;-2.610;2024-02-23T01:20:05;97579.50;;;4.67;100.00
55277;BME280;41136;51.478;-2.610;2024-02-23T01:22:29;97591.59;;;4.29;100.00
55277;BME280;41136;51.478;-2.610;2024-02-23T01:24:55;97583.17;;;4.58;100.00
55277;BME280;41136;51.478;-2.610;2024-02-23T01:27:20;97581.14;;;4.93;100.00
55277;BME280;41136;51.478;-2.610;2024-02-23T01:29:46;97577.20;;;5.24;100.00
55277;BME280;41136;51.478;-2.610;2024-02-23T01:32:11;97581.46;;;5.09;100.00
55277;BME280;41136;51.478;-2.610;2024-02-23T01:34:36;97574.90;;;5.40;100.00
55277;BME280;41136;51.478;-2.610;2024-02-23T01:37:02;97570.55;;;5.37;100.00
55277;BME280;41136;51.478;-2.610;2024-02-23T01:39:27;97572.89;;;5.24;100.00
55277;BME280;41136;51.478;-2.610;2024-02-23T01:41:53;97571.50;;;5.49;100.00
55277;BME280;41136;51.478;-2.610;2024-02-23T01:44:18;97574.03;;;6.13;100.00
55277;BME280;41136;51.478;-2.610;2024-02-23T01:46:43;97570.27;;;5.82;100.00
55277;BME280;41136;51.478;-2.610;2024-02-23T01:49:09;97567.33;;;5.74;100.00
55277;BME280;41136;51.478;-2.610;2024-02-23T01:51:34;97564.67;;;6.12;100.00
55277;BME280;41136;51.478;-2.610;2024-02-23T01:54:00;97560.63;;;5.89;100.00
55277;BME280;41136;51.478;-2.610;2024-02-23T01:56:25;97561.13;;;6.28;100.00
55277;BME280;41136;51.478;-2.610;2024-02-23T01:58:50;97559.66;;;6.71;100.00
55277;BME280;41136;51.478;-2.610;2024-02-23T02:01:16;97556.08;;;6.43;100.00
55277;BME280;41136;51.478;-2.610;2024-02-23T02:03:41;97553.89;;;6.07;100.00
55277;BME280;41136;51.478;-2.610;2024-02-23T02:06:07;97555.94;;;6.01;100.00
55277;BME280;41136;51.478;-2.610;2024-02-23T02:17:55;97539.64;;;5.73;100.00
55277;BME280;41136;51.478;-2.610;2024-02-23T02:20:24;97538.74;;;6.27;100.00
55277;BME280;41136;51.478;-2.610;2024-02-23T02:22:46;97547.10;;;5.77;100.00
55277;BME280;41136;51.478;-2.610;2024-02-23T02:25:14;97543.46;;;6.05;100.00
55277;BME280;41136;51.478;-2.610;2024-02-23T02:27:37;97542.67;;;6.50;100.00
55277;BME280;41136;51.478;-2.610;2024-02-23T02:30:03;97548.20;;;6.48;100.00
55277;BME280;41136;51.478;-2.610;2024-02-23T02:32:28;97541.78;;;5.73;100.00
55277;BME280;41136;51.478;-2.610;2024-02-23T02:34:53;97536.72;;;5.70;100.00
55277;BME280;41136;51.478;-2.610;2024-02-23T02:37:18;97536.68;;;5.39;100.00
55277;BME280;41136;51.478;-2.610;2024-02-23T02:39:44;97536.39;;;5.27;100.00
55277;BME280;41136;51.478;-2.610;2024-02-23T02:42:09;97537.89;;;5.33;100.00
55277;BME280;41136;51.478;-2.610;2024-02-23T02:44:35;97539.72;;;5.78;100.00
55277;BME280;41136;51.478;-2.610;2024-02-23T02:47:00;97547.01;;;4.95;100.00
55277;BME280;41136;51.478;-2.610;2024-02-23T02:49:25;97553.13;;;4.88;100.00
55277;BME280;41136;51.478;-2.610;2024-02-23T02:51:51;97552.52;;;5.30;100.00
55277;BME280;41136;51.478;-2.610;2024-02-23T02:54:16;97552.33;;;5.78;100.00
55277;BME280;41136;51.478;-2.610;2024-02-23T02:56:42;97552.98;;;5.38;100.00
55277;BME280;41136;51.478;-2.610;2024-02-23T02:59:07;97550.20;;;5.53;100.00
55277;BME280;41136;51.478;-2.610;2024-02-23T03:01:32;97551.34;;;5.56;100.00
55277;BME280;41136;51.478;-2.610;2024-02-23T03:03:58;97545.35;;;5.76;100.00
55277;BME280;41136;51.478;-2.610;2024-02-23T03:06:23;97551.03;;;5.80;100.00
55277;BME280;41136;51.478;-2.610;2024-02-23T03:08:49;97549.42;;;5.73;100.00
55277;BME280;41136;51.478;-2.610;2024-02-23T03:11:14;97549.65;;;6.18;100.00
55277;BME280;41136;51.478;-2.610;2024-02-23T03:13:39;97552.85;;;5.69;100.00
55277;BME280;41136;51.478;-2.610;2024-02-23T03:16:05;97545.85;;;5.41;100.00
55277;BME280;41136;51.478;-2.610;2024-02-23T03:18:30;97542.84;;;5.42;100.00
55277;BME280;41136;51.478;-2.610;2024-02-23T03:20:56;97540.03;;;5.86;100.00
55277;BME280;41136;51.478;-2.610;2024-02-23T03:23:21;97542.06;;;5.35;100.00
55277;BME280;41136;51.478;-2.610;2024-02-23T03:25:46;97537.16;;;5.85;100.00
55277;BME280;41136;51.478;-2.610;2024-02-23T03:28:12;97532.12;;;6.07;100.00
55277;BME280;41136;51.478;-2.610;2024-02-23T03:30:37;97533.46;;;6.09;100.00
55277;BME280;41136;51.478;-2.610;2024-02-23T03:33:03;97534.07;;;5.92;100.00
55277;BME280;41136;51.478;-2.610;2024-02-23T03:35:28;97537.74;;;6.03;100.00
55277;BME280;41136;51.478;-2.610;2024-02-23T03:37:53;97541.64;;;5.65;100.00
55277;BME280;41136;51.478;-2.610;2024-02-23T03:40:19;97549.00;;;5.56;100.00
55277;BME280;41136;51.478;-2.610;2024-02-23T03:42:44;97556.87;;;5.13;100.00
55277;BME280;41136;51.478;-2.610;2024-02-23T03:45:10;97554.42;;;5.40;100.00
55277;BME280;41136;51.478;-2.610;2024-02-23T03:47:35;97553.98;;;5.70;100.00
55277;BME280;41136;51.478;-2.610;2024-02-23T03:50:00;97557.34;;;5.85;100.00
55277;BME280;41136;51.478;-2.610;2024-02-23T03:52:26;97559.45;;;5.99;100.00
55277;BME280;41136;51.478;-2.610;2024-02-23T03:54:51;97563.19;;;5.60;100.00
55277;BME280;41136;51.478;-2.610;2024-02-23T03:57:17;97571.88;;;5.42;100.00
55277;BME280;41136;51.478;-2.610;2024-02-23T04:02:07;97568.61;;;5.52;100.00
55277;BME280;41136;51.478;-2.610;2024-02-23T04:04:33;97565.57;;;5.68;100.00
55277;BME280;41136;51.478;-2.610;2024-02-23T04:06:58;97564.32;;;6.18;100.00
55277;BME280;41136;51.478;-2.610;2024-02-23T04:09:24;97572.10;;;5.87;100.00
55277;BME280;41136;51.478;-2.610;2024-02-23T04:11:49;97567.62;;;5.59;100.00
55277;BME280;41136;51.478;-2.610;2024-02-23T04:14:14;97570.06;;;5.76;100.00
55277;BME280;41136;51.478;-2.610;2024-02-23T04:16:40;97568.43;;;5.68;100.00
55277;BME280;41136;51.478;-2.610;2024-02-23T04:19:05;97569.05;;;5.63;100.00
55277;BME280;41136;51.478;-2.610;2024-02-23T04:21:31;97566.69;;;5.78;100.00
55277;BME280;41136;51.478;-2.610;2024-02-23T04:23:56;97568.79;;;6.23;100.00
55277;BME280;41136;51.478;-2.610;2024-02-23T04:26:21;97567.24;;;6.24;100.00
55277;BME280;41136;51.478;-2.610;2024-02-23T04:28:47;97568.31;;;5.99;100.00
55277;BME280;41136;51.478;-2.610;2024-02-23T04:31:12;97570.13;;;6.40;100.00
55277;BME280;41136;51.478;-2.610;2024-02-23T04:33:38;97570.20;;;7.00;100.00
55277;BME280;41136;51.478;-2.610;2024-02-23T04:36:04;97572.55;;;6.27;100.00
55277;BME280;41136;51.478;-2.610;2024-02-23T04:38:28;97577.00;;;6.62;100.00
55277;BME280;41136;51.478;-2.610;2024-02-23T04:40:54;97577.84;;;6.63;100.00
55277;BME280;41136;51.478;-2.610;2024-02-23T04:43:19;97584.43;;;6.47;100.00
55277;BME280;41136;51.478;-2.610;2024-02-23T04:45:45;97590.17;;;6.56;100.00
55277;BME280;41136;51.478;-2.610;2024-02-23T04:48:10;97591.25;;;6.98;100.00
55277;BME280;41136;51.478;-2.610;2024-02-23T04:50:35;97593.34;;;6.11;100.00
55277;BME280;41136;51.478;-2.610;2024-02-23T04:53:01;97594.36;;;6.12;100.00
55277;BME280;41136;51.478;-2.610;2024-02-23T04:55:26;97594.74;;;6.15;100.00
55277;BME280;41136;51.478;-2.610;2024-02-23T04:57:51;97591.45;;;6.28;100.00
55277;BME280;41136;51.478;-2.610;2024-02-23T05:00:17;97587.72;;;6.69;100.00
55277;BME280;41136;51.478;-2.610;2024-02-23T05:02:42;97588.85;;;6.14;100.00
55277;BME280;41136;51.478;-2.610;2024-02-23T05:05:07;97593.67;;;5.84;100.00
55277;BME280;41136;51.478;-2.610;2024-02-23T05:07:32;97597.24;;;6.72;100.00
55277;BME280;41136;51.478;-2.610;2024-02-23T05:09:58;97599.03;;;5.85;100.00
55277;BME280;41136;51.478;-2.610;2024-02-23T05:12:23;97604.09;;;5.41;100.00
55277;BME280;41136;51.478;-2.610;2024-02-23T05:18:46;97603.47;;;5.10;100.00
55277;BME280;41136;51.478;-2.610;2024-02-23T05:22:34;97612.62;;;6.14;100.00
55277;BME280;41136;51.478;-2.610;2024-02-23T05:24:59;97611.16;;;6.07;100.00
55277;BME280;41136;51.478;-2.610;2024-02-23T05:27:25;97616.18;;;5.44;100.00
55277;BME280;41136;51.478;-2.610;2024-02-23T05:29:50;97616.36;;;5.40;100.00
55277;BME280;41136;51.478;-2.610;2024-02-23T05:32:15;97609.85;;;6.23;100.00
55277;BME280;41136;51.478;-2.610;2024-02-23T05:34:41;97612.08;;;6.19;100.00
55277;BME280;41136;51.478;-2.610;2024-02-23T05:37:07;97620.63;;;6.48;100.00
55277;BME280;41136;51.478;-2.610;2024-02-23T05:39:31;97622.14;;;7.01;100.00
55277;BME280;41136;51.478;-2.610;2024-02-23T05:41:57;97625.89;;;7.15;100.00
55277;BME280;41136;51.478;-2.610;2024-02-23T05:44:22;97622.05;;;7.58;100.00
55277;BME280;41136;51.478;-2.610;2024-02-23T05:46:48;97619.60;;;7.88;100.00
55277;BME280;41136;51.478;-2.610;2024-02-23T05:49:13;97615.90;;;7.68;100.00
55277;BME280;41136;51.478;-2.610;2024-02-23T05:51:38;97619.89;;;7.60;100.00
55277;BME280;41136;51.478;-2.610;2024-02-23T05:54:04;97617.14;;;7.59;100.00
55277;BME280;41136;51.478;-2.610;2024-02-23T05:56:29;97620.73;;;7.88;100.00
55277;BME280;41136;51.478;-2.610;2024-02-23T05:58:55;97616.44;;;7.51;100.00
55277;BME280;41136;51.478;-2.610;2024-02-23T06:01:20;97615.49;;;7.71;100.00
55277;BME280;41136;51.478;-2.610;2024-02-23T06:03:45;97614.49;;;7.60;100.00
55277;BME280;41136;51.478;-2.610;2024-02-23T06:06:11;97613.75;;;7.83;100.00
55277;BME280;41136;51.478;-2.610;2024-02-23T06:08:36;97617.91;;;7.62;100.00
55277;BME280;41136;51.478;-2.610;2024-02-23T06:11:02;97618.88;;;7.33;100.00
55277;BME280;41136;51.478;-2.610;2024-02-23T06:13:27;97622.59;;;7.18;100.00
55277;BME280;41136;51.478;-2.610;2024-02-23T06:15:52;97623.23;;;7.35;100.00
55277;BME280;41136;51.478;-2.610;2024-02-23T06:18:18;97622.68;;;7.90;100.00
55277;BME280;41136;51.478;-2.610;2024-02-23T06:20:43;97617.88;;;7.99;100.00
55277;BME280;41136;51.478;-2.610;2024-02-23T06:23:09;97616.09;;;7.99;100.00
55277;BME280;41136;51.478;-2.610;2024-02-23T06:25:34;97616.11;;;7.13;100.00
55277;BME280;41136;51.478;-2.610;2024-02-23T06:27:59;97614.19;;;7.43;100.00
55277;BME280;41136;51.478;-2.610;2024-02-23T06:30:25;97615.61;;;6.71;100.00
55277;BME280;41136;51.478;-2.610;2024-02-23T06:32:50;97610.65;;;6.68;100.00
55277;BME280;41136;51.478;-2.610;2024-02-23T06:35:16;97606.77;;;6.39;100.00
55277;BME280;41136;51.478;-2.610;2024-02-23T06:37:41;97609.89;;;6.87;100.00
55277;BME280;41136;51.478;-2.610;2024-02-23T06:40:07;97604.06;;;7.23;100.00
55277;BME280;41136;51.478;-2.610;2024-02-23T06:42:32;97605.35;;;6.96;100.00
55277;BME280;41136;51.478;-2.610;2024-02-23T06:44:57;97607.32;;;7.04;100.00
55277;BME280;41136;51.478;-2.610;2024-02-23T06:47:23;97609.53;;;6.55;100.00
55277;BME280;41136;51.478;-2.610;2024-02-23T06:49:48;97610.38;;;7.32;100.00
55277;BME280;41136;51.478;-2.610;2024-02-23T06:52:13;97612.56;;;7.28;100.00
55277;BME280;41136;51.478;-2.610;2024-02-23T06:54:39;97615.22;;;7.48;100.00
55277;BME280;41136;51.478;-2.610;2024-02-23T06:57:04;97614.08;;;7.61;100.00
55277;BME280;41136;51.478;-2.610;2024-02-23T06:59:30;97617.96;;;7.87;100.00
55277;BME280;41136;51.478;-2.610;2024-02-23T07:01:55;97616.25;;;7.77;100.00
55277;BME280;41136;51.478;-2.610;2024-02-23T07:04:20;97616.52;;;7.65;100.00
55277;BME280;41136;51.478;-2.610;2024-02-23T07:06:46;97619.47;;;7.90;100.00
55277;BME280;41136;51.478;-2.610;2024-02-23T07:09:11;97617.40;;;7.69;100.00
55277;BME280;41136;51.478;-2.610;2024-02-23T07:11:37;97619.19;;;7.88;100.00
55277;BME280;41136;51.478;-2.610;2024-02-23T07:14:02;97619.18;;;7.82;100.00
55277;BME280;41136;51.478;-2.610;2024-02-23T07:16:27;97619.70;;;8.13;100.00
55277;BME280;41136;51.478;-2.610;2024-02-23T07:18:53;97618.76;;;7.57;100.00
55277;BME280;41136;51.478;-2.610;2024-02-23T07:21:18;97625.54;;;7.83;100.00
55277;BME280;41136;51.478;-2.610;2024-02-23T07:23:44;97625.34;;;7.78;100.00
55277;BME280;41136;51.478;-2.610;2024-02-23T07:26:09;97624.18;;;7.73;100.00
55277;BME280;41136;51.478;-2.610;2024-02-23T07:28:34;97625.18;;;7.92;100.00
55277;BME280;41136;51.478;-2.610;2024-02-23T07:31:00;97629.45;;;8.00;100.00
55277;BME280;41136;51.478;-2.610;2024-02-23T07:33:25;97637.50;;;7.91;100.00
55277;BME280;41136;51.478;-2.610;2024-02-23T07:35:50;97637.15;;;8.13;100.00
55277;BME280;41136;51.478;-2.610;2024-02-23T07:38:16;97634.69;;;7.74;100.00
55277;BME280;41136;51.478;-2.610;2024-02-23T07:40:41;97638.95;;;8.13;100.00
55277;BME280;41136;51.478;-2.610;2024-02-23T07:43:07;97641.21;;;8.18;100.00
55277;BME280;41136;51.478;-2.610;2024-02-23T07:45:32;97646.33;;;8.05;100.00
55277;BME280;41136;51.478;-2.610;2024-02-23T07:47:57;97655.99;;;8.45;100.00
55277;BME280;41136;51.478;-2.610;2024-02-23T07:50:23;97653.68;;;8.16;100.00
55277;BME280;41136;51.478;-2.610;2024-02-23T07:52:48;97654.17;;;8.06;100.00
55277;BME280;41136;51.478;-2.610;2024-02-23T07:55:13;97654.43;;;7.81;100.00
55277;BME280;41136;51.478;-2.610;2024-02-23T07:57:39;97659.30;;;8.31;100.00
55277;BME280;41136;51.478;-2.610;2024-02-23T08:00:06;97665.61;;;8.33;100.00
55277;BME280;41136;51.478;-2.610;2024-02-23T08:02:30;97673.52;;;7.91;100.00
55277;BME280;41136;51.478;-2.610;2024-02-23T08:04:55;97673.39;;;8.03;100.00
55277;BME280;41136;51.478;-2.610;2024-02-23T08:07:20;97675.49;;;7.63;100.00
55277;BME280;41136;51.478;-2.610;2024-02-23T08:09:46;97676.60;;;7.12;100.00
55277;BME280;41136;51.478;-2.610;2024-02-23T08:12:12;97673.17;;;6.25;100.00
55277;BME280;41136;51.478;-2.610;2024-02-23T08:14:36;97680.14;;;6.25;100.00
55277;BME280;41136;51.478;-2.610;2024-02-23T08:17:02;97682.25;;;6.67;100.00
55277;BME280;41136;51.478;-2.610;2024-02-23T08:19:27;97686.92;;;6.00;100.00
55277;BME280;41136;51.478;-2.610;2024-02-23T08:21:53;97684.41;;;7.11;100.00
55277;BME280;41136;51.478;-2.610;2024-02-23T08:24:18;97685.49;;;6.10;100.00
55277;BME280;41136;51.478;-2.610;2024-02-23T08:26:43;97683.25;;;5.95;100.00
55277;BME280;41136;51.478;-2.610;2024-02-23T08:29:09;97686.74;;;6.11;100.00
55277;BME280;41136;51.478;-2.610;2024-02-23T08:31:34;97684.55;;;6.24;100.00
55277;BME280;41136;51.478;-2.610;2024-02-23T08:33:59;97688.80;;;6.51;100.00
55277;BME280;41136;51.478;-2.610;2024-02-23T08:36:25;97692.17;;;5.64;100.00
55277;BME280;41136;51.478;-2.610;2024-02-23T08:38:50;97694.68;;;5.82;100.00
55277;BME280;41136;51.478;-2.610;2024-02-23T08:41:16;97691.25;;;6.23;100.00
55277;BME280;41136;51.478;-2.610;2024-02-23T08:43:41;97697.80;;;5.74;100.00
55277;BME280;41136;51.478;-2.610;2024-02-23T08:46:06;97703.28;;;6.14;100.00
55277;BME280;41136;51.478;-2.610;2024-02-23T08:48:32;97701.74;;;5.90;100.00
55277;BME280;41136;51.478;-2.610;2024-02-23T08:50:57;97703.36;;;6.10;100.00
55277;BME280;41136;51.478;-2.610;2024-02-23T08:53:23;97703.81;;;5.17;100.00
55277;BME280;41136;51.478;-2.610;2024-02-23T08:55:48;97698.10;;;5.24;100.00
55277;BME280;41136;51.478;-2.610;2024-02-23T08:58:14;97696.04;;;5.92;100.00
55277;BME280;41136;51.478;-2.610;2024-02-23T09:00:39;97692.80;;;6.55;100.00
55277;BME280;41136;51.478;-2.610;2024-02-23T09:03:05;97694.37;;;5.97;100.00
55277;BME280;41136;51.478;-2.610;2024-02-23T09:05:30;97695.16;;;5.84;100.00
55277;BME280;41136;51.478;-2.610;2024-02-23T09:07:56;97694.14;;;6.07;100.00
55277;BME280;41136;51.478;-2.610;2024-02-23T09:10:21;97693.44;;;6.47;100.00
55277;BME280;41136;51.478;-2.610;2024-02-23T09:12:46;97700.39;;;6.09;100.00
55277;BME280;41136;51.478;-2.610;2024-02-23T09:15:12;97700.62;;;6.47;100.00
55277;BME280;41136;51.478;-2.610;2024-02-23T09:17:37;97704.46;;;6.06;100.00
55277;BME280;41136;51.478;-2.610;2024-02-23T09:20:03;97708.60;;;6.35;100.00
55277;BME280;41136;51.478;-2.610;2024-02-23T09:22:28;97715.01;;;6.07;100.00
55277;BME280;41136;51.478;-2.610;2024-02-23T09:24:53;97713.53;;;6.45;100.00
55277;BME280;41136;51.478;-2.610;2024-02-23T09:27:20;97718.23;;;5.73;100.00
55277;BME280;41136;51.478;-2.610;2024-02-23T09:29:44;97714.17;;;5.61;100.00
55277;BME280;41136;51.478;-2.610;2024-02-23T09:32:09;97713.80;;;6.83;100.00
55277;BME280;41136;51.478;-2.610;2024-02-23T09:34:35;97717.73;;;6.05;100.00
55277;BME280;41136;51.478;-2.610;2024-02-23T09:37:00;97718.78;;;6.51;100.00
55277;BME280;41136;51.478;-2.610;2024-02-23T09:39:25;97716.55;;;6.62;100.00
55277;BME280;41136;51.478;-2.610;2024-02-23T09:41:51;97717.47;;;5.88;100.00
55277;BME280;41136;51.478;-2.610;2024-02-23T09:44:18;97716.62;;;6.98;100.00
55277;BME280;41136;51.478;-2.610;2024-02-23T09:46:43;97716.64;;;6.39;100.00
55277;BME280;41136;51.478;-2.610;2024-02-23T09:49:08;97721.34;;;6.10;100.00
55277;BME280;41136;51.478;-2.610;2024-02-23T09:51:33;97723.53;;;5.59;100.00
55277;BME280;41136;51.478;-2.610;2024-02-23T09:53:58;97719.84;;;5.96;100.00
55277;BME280;41136;51.478;-2.610;2024-02-23T09:56:27;97724.52;;;5.96;100.00
55277;BME280;41136;51.478;-2.610;2024-02-23T09:58:49;97724.02;;;6.13;100.00
55277;BME280;41136;51.478;-2.610;2024-02-23T10:01:19;97726.00;;;6.29;100.00
55277;BME280;41136;51.478;-2.610;2024-02-23T10:03:39;97727.80;;;6.21;100.00
55277;BME280;41136;51.478;-2.610;2024-02-23T10:06:05;97725.53;;;6.46;100.00
55277;BME280;41136;51.478;-2.610;2024-02-23T10:08:30;97732.06;;;6.67;100.00
55277;BME280;41136;51.478;-2.610;2024-02-23T10:10:56;97736.48;;;6.36;100.00
55277;BME280;41136;51.478;-2.610;2024-02-23T10:13:22;97748.29;;;6.56;100.00
55277;BME280;41136;51.478;-2.610;2024-02-23T10:15:47;97756.68;;;5.83;100.00
55277;BME280;41136;51.478;-2.610;2024-02-23T10:18:12;97755.28;;;5.78;100.00
55277;BME280;41136;51.478;-2.610;2024-02-23T10:20:37;97755.47;;;5.99;100.00
55277;BME280;41136;51.478;-2.610;2024-02-23T10:23:02;97765.24;;;6.20;100.00
55277;BME280;41136;51.478;-2.610;2024-02-23T10:25:28;97769.49;;;6.33;100.00
55277;BME280;41136;51.478;-2.610;2024-02-23T10:27:53;97770.51;;;6.53;100.00
55277;BME280;41136;51.478;-2.610;2024-02-23T10:30:18;97767.34;;;7.45;100.00
55277;BME280;41136;51.478;-2.610;2024-02-23T10:32:45;97770.10;;;6.88;100.00
55277;BME280;41136;51.478;-2.610;2024-02-23T10:35:13;97767.77;;;7.24;100.00
55277;BME280;41136;51.478;-2.610;2024-02-23T10:37:35;97772.34;;;7.39;100.00
55277;BME280;41136;51.478;-2.610;2024-02-23T10:40:00;97776.38;;;7.92;100.00
55277;BME280;41136;51.478;-2.610;2024-02-23T10:42:33;97776.76;;;7.67;100.00
55277;BME280;41136;51.478;-2.610;2024-02-23T10:44:51;97779.34;;;7.35;100.00
55277;BME280;41136;51.478;-2.610;2024-02-23T10:47:16;97780.01;;;7.69;100.00
55277;BME280;41136;51.478;-2.610;2024-02-23T10:49:42;97784.82;;;7.61;100.00
55277;BME280;41136;51.478;-2.610;2024-02-23T10:52:08;97783.22;;;7.88;100.00
55277;BME280;41136;51.478;-2.610;2024-02-23T10:54:33;97790.37;;;6.38;100.00
55277;BME280;41136;51.478;-2.610;2024-02-23T10:56:58;97794.41;;;6.01;100.00
55277;BME280;41136;51.478;-2.610;2024-02-23T10:59:23;97795.51;;;6.52;100.00
55277;BME280;41136;51.478;-2.610;2024-02-23T11:01:50;97794.67;;;6.34;100.00
55277;BME280;41136;51.478;-2.610;2024-02-23T11:04:15;97796.19;;;6.78;100.00
55277;BME280;41136;51.478;-2.610;2024-02-23T11:06:40;97796.53;;;7.22;100.00
55277;BME280;41136;51.478;-2.610;2024-02-23T11:09:05;97797.75;;;6.74;100.00
55277;BME280;41136;51.478;-2.610;2024-02-23T11:11:32;97795.12;;;6.24;100.00
55277;BME280;41136;51.478;-2.610;2024-02-23T11:14:03;97799.24;;;7.09;100.00
55277;BME280;41136;51.478;-2.610;2024-02-23T11:16:22;97797.48;;;7.45;100.00
55277;BME280;41136;51.478;-2.610;2024-02-23T11:18:46;97806.62;;;7.24;100.00
55277;BME280;41136;51.478;-2.610;2024-02-23T11:21:11;97808.43;;;6.87;100.00
55277;BME280;41136;51.478;-2.610;2024-02-23T11:23:41;97808.03;;;7.23;100.00
55277;BME280;41136;51.478;-2.610;2024-02-23T11:26:06;97805.59;;;6.74;100.00
55277;BME280;41136;51.478;-2.610;2024-02-23T11:28:28;97806.75;;;6.97;100.00
55277;BME280;41136;51.478;-2.610;2024-02-23T11:30:53;97808.02;;;7.25;100.00
55277;BME280;41136;51.478;-2.610;2024-02-23T11:33:26;97806.35;;;7.57;100.00
55277;BME280;41136;51.478;-2.610;2024-02-23T11:35:46;97804.28;;;7.02;100.00
55277;BME280;41136;51.478;-2.610;2024-02-23T11:38:09;97799.75;;;7.98;100.00
55277;BME280;41136;51.478;-2.610;2024-02-23T11:40:35;97800.08;;;7.37;100.00
55277;BME280;41136;51.478;-2.610;2024-02-23T11:43:00;97798.76;;;7.82;100.00
55277;BME280;41136;51.478;-2.610;2024-02-23T11:45:28;97800.01;;;8.02;100.00
55277;BME280;41136;51.478;-2.610;2024-02-23T11:47:52;97800.28;;;8.10;100.00
55277;BME280;41136;51.478;-2.610;2024-02-23T11:50:17;97799.47;;;8.69;100.00
55277;BME280;41136;51.478;-2.610;2024-02-23T11:52:42;97801.05;;;9.07;100.00
55277;BME280;41136;51.478;-2.610;2024-02-23T11:55:08;97799.94;;;8.49;100.00
55277;BME280;41136;51.478;-2.610;2024-02-23T11:57:33;97798.24;;;8.34;100.00
55277;BME280;41136;51.478;-2.610;2024-02-23T11:59:58;97798.35;;;8.62;100.00
55277;BME280;41136;51.478;-2.610;2024-02-23T12:02:24;97798.68;;;8.42;100.00
55277;BME280;41136;51.478;-2.610;2024-02-23T12:04:49;97801.11;;;8.76;100.00
55277;BME280;41136;51.478;-2.610;2024-02-23T12:07:15;97794.93;;;8.75;100.00
55277;BME280;41136;51.478;-2.610;2024-02-23T12:09:39;97798.25;;;8.46;100.00
55277;BME280;41136;51.478;-2.610;2024-02-23T12:12:05;97796.58;;;8.50;100.00
55277;BME280;41136;51.478;-2.610;2024-02-23T12:14:30;97793.15;;;9.47;100.00
55277;BME280;41136;51.478;-2.610;2024-02-23T12:16:57;97783.38;;;9.36;100.00
55277;BME280;41136;51.478;-2.610;2024-02-23T12:19:22;97782.39;;;9.11;100.00
55277;BME280;41136;51.478;-2.610;2024-02-23T12:21:46;97787.08;;;9.52;100.00
55277;BME280;41136;51.478;-2.610;2024-02-23T12:24:12;97790.23;;;9.55;100.00
55277;BME280;41136;51.478;-2.610;2024-02-23T12:26:37;97788.82;;;8.55;100.00
55277;BME280;41136;51.478;-2.610;2024-02-23T12:29:03;97790.21;;;8.69;100.00
55277;BME280;41136;51.478;-2.610;2024-02-23T12:31:28;97786.69;;;8.61;100.00
55277;BME280;41136;51.478;-2.610;2024-02-23T12:33:53;97787.55;;;8.93;100.00
55277;BME280;41136;51.478;-2.610;2024-02-23T12:36:18;97787.91;;;8.24;100.00
55277;BME280;41136;51.478;-2.610;2024-02-23T12:38:44;97787.41;;;8.58;100.00
55277;BME280;41136;51.478;-2.610;2024-02-23T12:41:09;97779.49;;;7.66;100.00
55277;BME280;41136;51.478;-2.610;2024-02-23T12:43:35;97779.84;;;8.96;100.00
55277;BME280;41136;51.478;-2.610;2024-02-23T12:46:00;97777.92;;;8.64;100.00
55277;BME280;41136;51.478;-2.610;2024-02-23T12:48:25;97774.05;;;9.62;100.00
55277;BME280;41136;51.478;-2.610;2024-02-23T12:50:51;97772.33;;;9.69;100.00
55277;BME280;41136;51.478;-2.610;2024-02-23T12:55:41;97762.41;;;9.72;100.00
55277;BME280;41136;51.478;-2.610;2024-02-23T12:58:07;97754.36;;;10.03;100.00